Paya Lebar, Singapore
Current Conditions -  °F | °C
As of 1:00 PM on Saturday 25 Oct 2014 (Local Time) from WSAP Reporting Station
Broken Clouds Broken Clouds  
Wind Chill: 91°   Ceiling: 30000
Heat Index: 95°   Visibility: 6mi
Dew Point: 68°   Wind: 6mph
Humidity: 46%   Direction: 130°SE
Pressure: 29.85"   Gusts: NA
Location:  1.36°N, 103.91°E
Report Text: WSAP 250500Z 13005KT 9999 FEW020 BKN300 33/20 Q1011
Loading
Personal Weather Stations






























Interactive Weather Map
Tropical Storm Tracking
New forecast layout! Learn more

10-Day Weather Forecast

Advertisements
Track Severe Weather on mobile